Time,TemperatureF,DewpointF,PressureIn,WindDirection,WindDirectionDegrees,WindSpeedMPH,WindSpeedGustMPH,Humidity,HourlyPrecipIn,Conditions,Clouds,dailyrainin,SoftwareType,DateUTC
2013-04-04 00:02:00,41.0,24.0,-100.00,SSE,150,0.0,0.0,50,-99.99,,,-99.99,,2013-04-04 05:02:00,
2013-04-04 00:13:00,41.0,24.0,-100.00,SSE,155,0.0,0.0,50,-99.99,,,-99.99,,2013-04-04 05:13:00,
2013-04-04 00:23:00,40.0,24.0,-100.00,SSE,150,0.0,0.0,52,-99.99,,,-99.99,,2013-04-04 05:23:00,
2013-04-04 00:32:00,40.0,24.0,-100.00,SSE,150,0.0,0.0,52,-99.99,,,-99.99,,2013-04-04 05:32:00,
2013-04-04 00:42:00,40.0,25.0,-100.00,SE,145,0.0,0.0,55,-99.99,,,-99.99,,2013-04-04 05:42:00,
2013-04-04 00:53:00,40.0,25.0,-100.00,SSE,150,0.0,0.0,56,-99.99,,,-99.99,,2013-04-04 05:53:00,
2013-04-04 01:02:00,40.0,25.0,-100.00,SSE,150,0.0,0.0,56,-99.99,,,-99.99,,2013-04-04 06:02:00,
2013-04-04 01:12:00,39.0,25.0,-100.00,SSE,150,0.0,0.0,57,-99.99,,,-99.99,,2013-04-04 06:12:00,
2013-04-04 01:22:00,39.0,25.0,-100.00,SSE,155,0.0,0.0,57,-99.99,,,-99.99,,2013-04-04 06:22:00,
2013-04-04 01:32:00,39.0,25.0,-100.00,SSE,155,0.0,0.0,57,-99.99,,,-99.99,,2013-04-04 06:32:00,
2013-04-04 01:42:00,38.0,25.0,-100.00,SSE,160,0.0,0.0,58,-99.99,,,-99.99,,2013-04-04 06:42:00,
2013-04-04 01:53:00,38.0,25.0,-100.00,SSE,155,0.0,0.0,58,-99.99,,,-99.99,,2013-04-04 06:53:00,
2013-04-04 02:02:00,38.0,25.0,-100.00,SSE,155,0.0,0.0,58,-99.99,,,-99.99,,2013-04-04 07:02:00,
2013-04-04 02:12:00,38.0,25.0,-100.00,SSE,155,0.0,0.0,60,-99.99,,,-99.99,,2013-04-04 07:12:00,
2013-04-04 02:22:00,38.0,25.0,-100.00,SSE,165,0.0,0.0,59,-99.99,,,-99.99,,2013-04-04 07:22:00,
2013-04-04 02:32:00,38.0,25.0,-100.00,SSE,165,0.0,0.0,59,-99.99,,,-99.99,,2013-04-04 07:32:00,
2013-04-04 02:43:00,38.0,25.0,-100.00,South,170,0.0,0.0,60,-99.99,,,-99.99,,2013-04-04 07:43:00,
2013-04-04 02:53:00,37.0,25.0,-100.00,SSE,165,0.0,0.0,60,-99.99,,,-99.99,,2013-04-04 07:53:00,
2013-04-04 03:02:00,37.0,25.0,-100.00,SSE,165,0.0,0.0,60,-99.99,,,-99.99,,2013-04-04 08:02:00,
2013-04-04 03:12:00,37.0,25.0,-100.00,SSE,160,0.0,0.0,60,-99.99,,,-99.99,,2013-04-04 08:12:00,
2013-04-04 03:23:00,37.0,25.0,-100.00,SSE,165,0.0,0.0,60,-99.99,,,-99.99,,2013-04-04 08:23:00,
2013-04-04 03:32:00,37.0,25.0,-100.00,SSE,165,0.0,0.0,60,-99.99,,,-99.99,,2013-04-04 08:32:00,
2013-04-04 03:43:00,37.0,24.0,-100.00,SSE,160,0.0,0.0,60,-99.99,,,-99.99,,2013-04-04 08:43:00,
2013-04-04 03:52:00,36.0,24.0,-100.00,SE,145,0.0,0.0,61,-99.99,,,-99.99,,2013-04-04 08:52:00,
2013-04-04 04:03:00,36.0,24.0,-100.00,SE,145,0.0,0.0,61,-99.99,,,-99.99,,2013-04-04 09:03:00,
2013-04-04 04:12:00,36.0,25.0,-100.00,NNW,335,0.0,0.0,63,-99.99,,,-99.99,,2013-04-04 09:12:00,
2013-04-04 04:22:00,36.0,27.0,-100.00,North,0,0.0,0.0,69,-99.99,,,-99.99,,2013-04-04 09:22:00,
2013-04-04 04:33:00,36.0,27.0,-100.00,North,0,0.0,0.0,69,-99.99,,,-99.99,,2013-04-04 09:33:00,
2013-04-04 04:43:00,36.0,27.0,-100.00,SE,130,0.0,0.0,71,-99.99,,,-99.99,,2013-04-04 09:43:00,
2013-04-04 04:54:00,36.0,28.0,-100.00,ESE,115,0.0,0.0,71,-99.99,,,-99.99,,2013-04-04 09:54:00,
2013-04-04 05:04:00,36.0,28.0,-100.00,ESE,115,0.0,0.0,71,-99.99,,,-99.99,,2013-04-04 10:04:00,
2013-04-04 05:12:00,36.0,29.0,-100.00,NNW,330,0.0,0.0,74,-99.99,,,-99.99,,2013-04-04 10:12:00,
2013-04-04 05:24:00,36.0,29.0,-100.00,NNW,345,0.0,0.0,77,-99.99,,,-99.99,,2013-04-04 10:24:00,
2013-04-04 05:33:00,36.0,29.0,-100.00,NNW,345,0.0,0.0,77,-99.99,,,-99.99,,2013-04-04 10:33:00,
2013-04-04 05:42:00,36.0,30.0,-100.00,North,350,0.0,0.0,79,-99.99,,,-99.99,,2013-04-04 10:42:00,
2013-04-04 05:54:00,36.0,30.0,-100.00,North,355,0.0,0.0,80,-99.99,,,-99.99,,2013-04-04 10:54:00,
2013-04-04 06:02:00,36.0,30.0,-100.00,North,355,0.0,0.0,80,-99.99,,,-99.99,,2013-04-04 11:02:00,
2013-04-04 06:12:00,36.0,30.0,-100.00,North,355,0.0,0.0,80,-99.99,,,-99.99,,2013-04-04 11:12:00,
2013-04-04 06:22:00,35.0,31.0,-100.00,NNW,345,0.0,0.0,83,-99.99,,,-99.99,,2013-04-04 11:22:00,
2013-04-04 06:33:00,35.0,31.0,-100.00,NNW,345,0.0,0.0,83,-99.99,,,-99.99,,2013-04-04 11:33:00,
2013-04-04 06:42:00,35.0,31.0,-100.00,NW,320,0.0,0.0,85,-99.99,,,-99.99,,2013-04-04 11:42:00,
2013-04-04 06:54:00,35.0,31.0,-100.00,NNW,330,0.0,0.0,85,-99.99,,,-99.99,,2013-04-04 11:54:00,
2013-04-04 07:02:00,35.0,31.0,-100.00,NNW,330,0.0,0.0,85,-99.99,,,-99.99,,2013-04-04 12:02:00,
2013-04-04 07:12:00,35.0,31.0,-100.00,NNW,340,0.0,0.0,86,-99.99,,,-99.99,,2013-04-04 12:12:00,
2013-04-04 07:22:00,35.0,32.0,-100.00,NNW,345,0.0,0.0,87,-99.99,,,-99.99,,2013-04-04 12:22:00,
2013-04-04 07:32:00,35.0,32.0,-100.00,NNW,345,0.0,0.0,87,-99.99,,,-99.99,,2013-04-04 12:32:00,
2013-04-04 07:43:00,36.0,32.0,-100.00,NNW,335,0.0,0.0,88,-99.99,,,-99.99,,2013-04-04 12:43:00,
2013-04-04 07:52:00,36.0,33.0,-100.00,NNW,345,0.0,0.0,89,-99.99,,,-99.99,,2013-04-04 12:52:00,
2013-04-04 08:02:00,36.0,33.0,-100.00,NNW,345,0.0,0.0,89,-99.99,,,-99.99,,2013-04-04 13:02:00,
2013-04-04 08:12:00,36.0,34.0,-100.00,SSE,155,0.0,0.0,90,-99.99,,,-99.99,,2013-04-04 13:12:00,
2013-04-04 08:22:00,38.0,36.0,-100.00,ESE,110,0.0,0.0,90,-99.99,,,-99.99,,2013-04-04 13:22:00,
2013-04-04 08:32:00,38.0,36.0,-100.00,ESE,110,0.0,0.0,90,-99.99,,,-99.99,,2013-04-04 13:32:00,
2013-04-04 08:42:00,40.0,35.0,-100.00,SE,135,0.0,0.0,85,-99.99,,,-99.99,,2013-04-04 13:42:00,
2013-04-04 08:53:00,42.0,33.0,-100.00,SSE,155,0.0,0.0,71,-99.99,,,-99.99,,2013-04-04 13:53:00,
2013-04-04 09:03:00,42.0,33.0,-100.00,SSE,155,0.0,0.0,71,-99.99,,,-99.99,,2013-04-04 14:03:00,
2013-04-04 09:13:00,44.0,31.0,-100.00,SSE,160,0.0,0.0,59,-99.99,,,-99.99,,2013-04-04 14:13:00,
2013-04-04 09:22:00,44.0,29.0,-100.00,SSW,205,0.0,0.0,55,-99.99,,,-99.99,,2013-04-04 14:22:00,
2013-04-04 09:32:00,44.0,29.0,-100.00,SSW,205,0.0,0.0,55,-99.99,,,-99.99,,2013-04-04 14:32:00,
2013-04-04 09:42:00,44.0,28.0,-100.00,SSW,200,0.0,0.0,54,-99.99,,,-99.99,,2013-04-04 14:42:00,
2013-04-04 09:53:00,47.0,29.0,-100.00,SSW,205,0.0,0.0,50,-99.99,,,-99.99,,2013-04-04 14:53:00,
2013-04-04 10:02:00,47.0,29.0,-100.00,SSW,205,0.0,0.0,50,-99.99,,,-99.99,,2013-04-04 15:02:00,
2013-04-04 10:12:00,48.0,29.0,-100.00,SW,230,0.0,0.0,47,-99.99,,,-99.99,,2013-04-04 15:12:00,
2013-04-04 10:33:00,49.0,27.0,-100.00,SW,215,0.0,0.0,43,-99.99,,,-99.99,,2013-04-04 15:33:00,
2013-04-04 10:43:00,51.0,29.0,-100.00,SSW,205,0.0,0.0,43,-99.99,,,-99.99,,2013-04-04 15:43:00,
2013-04-04 10:54:00,53.0,29.0,-100.00,SW,230,0.0,0.0,40,-99.99,,,-99.99,,2013-04-04 15:54:00,
2013-04-04 11:03:00,53.0,29.0,-100.00,SW,230,0.0,0.0,40,-99.99,,,-99.99,,2013-04-04 16:03:00,
2013-04-04 11:12:00,53.0,29.0,-100.00,SSW,210,0.0,0.0,39,-99.99,,,-99.99,,2013-04-04 16:12:00,
2013-04-04 11:24:00,55.0,29.0,-100.00,South,180,0.0,0.0,37,-99.99,,,-99.99,,2013-04-04 16:24:00,
2013-04-04 11:32:00,55.0,29.0,-100.00,South,180,0.0,0.0,37,-99.99,,,-99.99,,2013-04-04 16:32:00,
2013-04-04 11:42:00,55.0,28.0,-100.00,West,260,0.0,0.0,35,-99.99,,,-99.99,,2013-04-04 16:42:00,
2013-04-04 11:54:00,56.0,28.0,-100.00,NNW,335,0.0,0.0,34,-99.99,,,-99.99,,2013-04-04 16:54:00,
2013-04-04 12:03:00,56.0,28.0,-100.00,NNW,335,0.0,0.0,34,-99.99,,,-99.99,,2013-04-04 17:03:00,
2013-04-04 12:13:00,56.0,28.0,-100.00,North,0,0.0,0.0,34,-99.99,,,-99.99,,2013-04-04 17:13:00,
2013-04-04 12:22:00,54.0,27.0,-100.00,SSE,155,0.0,0.0,35,-99.99,,,-99.99,,2013-04-04 17:22:00,
2013-04-04 12:33:00,54.0,27.0,-100.00,SSE,155,0.0,0.0,35,-99.99,,,-99.99,,2013-04-04 17:33:00,
2013-04-04 12:42:00,55.0,28.0,-100.00,WNW,285,0.0,0.0,35,-99.99,,,-99.99,,2013-04-04 17:42:00,
2013-04-04 12:53:00,58.0,30.0,-100.00,SE,145,0.0,0.0,34,-99.99,,,-99.99,,2013-04-04 17:53:00,
2013-04-04 13:02:00,58.0,30.0,-100.00,SE,145,0.0,0.0,34,-99.99,,,-99.99,,2013-04-04 18:02:00,
2013-04-04 13:12:00,59.0,30.0,-100.00,West,260,0.0,0.0,33,-99.99,,,-99.99,,2013-04-04 18:12:00,
2013-04-04 13:23:00,59.0,30.0,-100.00,NW,325,0.0,0.0,33,-99.99,,,-99.99,,2013-04-04 18:23:00,
2013-04-04 13:32:00,59.0,30.0,-100.00,NW,325,0.0,0.0,33,-99.99,,,-99.99,,2013-04-04 18:32:00,
2013-04-04 13:43:00,60.0,30.0,-100.00,SSE,150,0.0,0.0,33,-99.99,,,-99.99,,2013-04-04 18:43:00,
2013-04-04 13:52:00,60.0,31.0,-100.00,West,270,0.0,0.0,33,-99.99,,,-99.99,,2013-04-04 18:52:00,
2013-04-04 14:01:00,60.0,30.0,-100.00,North,350,0.0,0.0,32,-99.99,,,-99.99,,2013-04-04 19:01:00,
2013-04-04 14:02:00,60.0,31.0,-100.00,West,270,0.0,0.0,33,-99.99,,,-99.99,,2013-04-04 19:02:00,
2013-04-04 14:12:00,60.0,31.0,-100.00,NW,315,0.0,0.0,33,-99.99,,,-99.99,,2013-04-04 19:12:00,
2013-04-04 14:22:00,60.0,30.0,-100.00,NW,315,0.0,0.0,33,-99.99,,,-99.99,,2013-04-04 19:22:00,
2013-04-04 14:32:00,60.0,30.0,-100.00,NW,315,0.0,0.0,33,-99.99,,,-99.99,,2013-04-04 19:32:00,
2013-04-04 14:42:00,60.0,30.0,-100.00,North,350,0.0,0.0,32,-99.99,,,-99.99,,2013-04-04 19:42:00,
2013-04-04 14:52:00,60.0,30.0,-100.00,North,350,0.0,0.0,32,-99.99,,,-99.99,,2013-04-04 19:52:00,
2013-04-04 15:23:00,61.0,30.0,-100.00,NW,325,0.0,0.0,31,-99.99,,,-99.99,,2013-04-04 20:23:00,
2013-04-04 15:32:00,61.0,30.0,-100.00,NW,325,0.0,0.0,31,-99.99,,,-99.99,,2013-04-04 20:32:00,
2013-04-04 15:42:00,63.0,32.0,-100.00,West,270,0.0,0.0,31,-99.99,,,-99.99,,2013-04-04 20:42:00,
2013-04-04 15:53:00,62.0,31.0,-100.00,ESE,110,0.0,0.0,31,-99.99,,,-99.99,,2013-04-04 20:53:00,
2013-04-04 16:02:00,62.0,31.0,-100.00,ESE,110,0.0,0.0,31,-99.99,,,-99.99,,2013-04-04 21:02:00,
2013-04-04 16:12:00,63.0,31.0,-100.00,West,280,0.0,0.0,30,-99.99,,,-99.99,,2013-04-04 21:12:00,
2013-04-04 16:22:00,62.0,30.0,-100.00,WNW,300,0.0,0.0,30,-99.99,,,-99.99,,2013-04-04 21:22:00,
2013-04-04 16:32:00,62.0,30.0,-100.00,WNW,300,0.0,0.0,30,-99.99,,,-99.99,,2013-04-04 21:32:00,
2013-04-04 16:43:00,62.0,30.0,-100.00,WNW,295,0.0,0.0,30,-99.99,,,-99.99,,2013-04-04 21:43:00,
2013-04-04 16:53:00,62.0,30.0,-100.00,WNW,300,0.0,0.0,30,-99.99,,,-99.99,,2013-04-04 21:53:00,
2013-04-04 17:12:00,62.0,31.0,-100.00,West,260,0.0,0.0,31,-99.99,,,-99.99,,2013-04-04 22:12:00,
2013-04-04 17:23:00,61.0,30.0,-100.00,NW,320,0.0,0.0,31,-99.99,,,-99.99,,2013-04-04 22:23:00,
2013-04-04 17:33:00,61.0,30.0,-100.00,NW,320,0.0,0.0,31,-99.99,,,-99.99,,2013-04-04 22:33:00,
2013-04-04 17:42:00,61.0,30.0,-100.00,West,265,0.0,0.0,31,-99.99,,,-99.99,,2013-04-04 22:42:00,
2013-04-04 17:53:00,61.0,31.0,-100.00,WNW,300,0.0,0.0,32,-99.99,,,-99.99,,2013-04-04 22:53:00,
2013-04-04 18:03:00,61.0,31.0,-100.00,WNW,300,0.0,0.0,32,-99.99,,,-99.99,,2013-04-04 23:03:00,
2013-04-04 18:12:00,61.0,31.0,-100.00,WNW,300,0.0,0.0,32,-99.99,,,-99.99,,2013-04-04 23:12:00,
2013-04-04 18:22:00,61.0,31.0,-100.00,West,270,0.0,0.0,33,-99.99,,,-99.99,,2013-04-04 23:22:00,
2013-04-04 18:32:00,61.0,31.0,-100.00,West,270,0.0,0.0,33,-99.99,,,-99.99,,2013-04-04 23:32:00,
2013-04-04 18:42:00,60.0,31.0,-100.00,WNW,300,0.0,0.0,33,-99.99,,,-99.99,,2013-04-04 23:42:00,
2013-04-04 18:52:00,59.0,30.0,-100.00,NW,310,0.0,0.0,33,-99.99,,,-99.99,,2013-04-04 23:52:00,
2013-04-04 19:02:00,59.0,30.0,-100.00,NW,310,0.0,0.0,33,-99.99,,,-99.99,,2013-04-05 00:02:00,
2013-04-04 19:12:00,59.0,30.0,-100.00,NW,310,0.0,0.0,33,-99.99,,,-99.99,,2013-04-05 00:12:00,
2013-04-04 19:22:00,58.0,29.0,-100.00,NW,320,0.0,0.0,33,-99.99,,,-99.99,,2013-04-05 00:22:00,
2013-04-04 19:32:00,58.0,29.0,-100.00,NW,320,0.0,0.0,33,-99.99,,,-99.99,,2013-04-05 00:32:00,
2013-04-04 19:42:00,58.0,29.0,-100.00,NW,320,0.0,0.0,33,-99.99,,,-99.99,,2013-04-05 00:42:00,
2013-04-04 19:52:00,56.0,29.0,-100.00,WNW,285,0.0,0.0,35,-99.99,,,-99.99,,2013-04-05 00:52:00,
2013-04-04 20:02:00,56.0,29.0,-100.00,WNW,285,0.0,0.0,35,-99.99,,,-99.99,,2013-04-05 01:02:00,
2013-04-04 20:12:00,55.0,29.0,-100.00,NW,315,0.0,0.0,36,-99.99,,,-99.99,,2013-04-05 01:12:00,
2013-04-04 20:22:00,54.0,28.0,-100.00,NW,310,0.0,0.0,37,-99.99,,,-99.99,,2013-04-05 01:22:00,
2013-04-04 20:32:00,54.0,28.0,-100.00,NW,310,0.0,0.0,37,-99.99,,,-99.99,,2013-04-05 01:32:00,
2013-04-04 20:42:00,53.0,29.0,-100.00,WNW,295,0.0,0.0,39,-99.99,,,-99.99,,2013-04-05 01:42:00,
2013-04-04 20:53:00,52.0,28.0,-100.00,WNW,300,0.0,0.0,39,-99.99,,,-99.99,,2013-04-05 01:53:00,
2013-04-04 21:03:00,52.0,28.0,-100.00,WNW,300,0.0,0.0,39,-99.99,,,-99.99,,2013-04-05 02:03:00,
2013-04-04 21:12:00,51.0,28.0,-100.00,WNW,295,0.0,0.0,40,-99.99,,,-99.99,,2013-04-05 02:12:00,
2013-04-04 21:22:00,50.0,28.0,-100.00,WNW,290,0.0,0.0,42,-99.99,,,-99.99,,2013-04-05 02:22:00,
2013-04-04 21:32:00,50.0,28.0,-100.00,WNW,290,0.0,0.0,42,-99.99,,,-99.99,,2013-04-05 02:32:00,
2013-04-04 21:42:00,50.0,28.0,-100.00,WNW,290,0.0,0.0,43,-99.99,,,-99.99,,2013-04-05 02:42:00,
2013-04-04 21:52:00,49.0,28.0,-100.00,WNW,290,0.0,0.0,45,-99.99,,,-99.99,,2013-04-05 02:52:00,
2013-04-04 22:02:00,49.0,28.0,-100.00,WNW,290,0.0,0.0,45,-99.99,,,-99.99,,2013-04-05 03:02:00,
2013-04-04 22:12:00,48.0,28.0,-100.00,WNW,285,0.0,0.0,45,-99.99,,,-99.99,,2013-04-05 03:12:00,
2013-04-04 22:22:00,48.0,28.0,-100.00,WNW,285,0.0,0.0,46,-99.99,,,-99.99,,2013-04-05 03:22:00,
2013-04-04 22:32:00,48.0,28.0,-100.00,WNW,285,0.0,0.0,46,-99.99,,,-99.99,,2013-04-05 03:32:00,
2013-04-04 22:43:00,48.0,28.0,-100.00,WNW,285,0.0,0.0,46,-99.99,,,-99.99,,2013-04-05 03:43:00,
2013-04-04 22:54:00,47.0,28.0,-100.00,WNW,290,0.0,0.0,48,-99.99,,,-99.99,,2013-04-05 03:54:00,
2013-04-04 23:02:00,47.0,28.0,-100.00,WNW,290,0.0,0.0,48,-99.99,,,-99.99,,2013-04-05 04:02:00,
2013-04-04 23:12:00,46.0,28.0,-100.00,WNW,300,0.0,0.0,49,-99.99,,,-99.99,,2013-04-05 04:12:00,
2013-04-04 23:22:00,45.0,28.0,-100.00,West,280,0.0,0.0,50,-99.99,,,-99.99,,2013-04-05 04:22:00,
2013-04-04 23:32:00,45.0,28.0,-100.00,West,280,0.0,0.0,50,-99.99,,,-99.99,,2013-04-05 04:32:00,
2013-04-04 23:42:00,45.0,29.0,-100.00,West,280,0.0,0.0,53,-99.99,,,-99.99,,2013-04-05 04:42:00,
2013-04-04 23:52:00,45.0,29.0,-100.00,WNW,285,0.0,0.0,55,-99.99,,,-99.99,,2013-04-05 04:52:00,